Terminal Aerodrome Forecast
Issued by NWS

Home | Current Version | Previous Version | Text Only | Print | Product List | Glossary On
Versions: 1 2 3 4 5 6 7 8 9 10 11 12 13 14 15 16 17 18 19 20 21 22 23
000
FTUS46 KOTX 251122
TAFPUW
TAF
KPUW 251122Z 2512/2612 21008KT P6SM VCSH SCT040 BKN070 OVC150
     FM251700 26009KT P6SM -SHRA SCT040 BKN060 OVC120
     FM260100 27007KT P6SM SCT060 BKN150=

USA.gov is the U.S. government's official web portal to all federal, state and local government web resources and services.